createdAt,value
2023-01-21T00:01:20.720Z,70.50
2023-01-21T00:03:49.102Z,69.00
2023-01-21T00:06:17.624Z,70.00
2023-01-21T00:08:45.984Z,61.30
2023-01-21T00:11:15.865Z,65.80
2023-01-21T00:13:44.896Z,58.20
2023-01-21T00:16:14.068Z,61.30
2023-01-21T00:18:42.647Z,69.80
2023-01-21T00:21:11.366Z,79.70
2023-01-21T00:23:40.288Z,66.60
2023-01-21T00:26:12.077Z,66.10
2023-01-21T00:28:44.319Z,55.80
2023-01-21T00:31:12.824Z,72.10
2023-01-21T00:33:41.280Z,61.00
2023-01-21T00:36:18.426Z,58.80
2023-01-21T00:38:49.212Z,67.90
2023-01-21T00:41:17.610Z,60.90
2023-01-21T00:43:46.022Z,54.70
2023-01-21T00:46:14.420Z,66.30
2023-01-21T00:48:42.841Z,58.20
2023-01-21T00:51:12.075Z,61.80
2023-01-21T00:53:44.763Z,53.70
2023-01-21T00:56:14.221Z,60.60
2023-01-21T00:58:45.529Z,66.10
2023-01-21T01:01:20.333Z,56.10
2023-01-21T01:03:50.351Z,64.00
2023-01-21T01:06:22.533Z,65.10
2023-01-21T01:08:50.991Z,60.60
2023-01-21T01:11:21.619Z,59.10
2023-01-21T01:13:50.033Z,52.00
2023-01-21T01:16:19.134Z,56.80
2023-01-21T01:18:48.400Z,60.50
2023-01-21T01:21:20.267Z,61.00
2023-01-21T01:23:52.214Z,53.90
2023-01-21T01:26:22.355Z,51.60
2023-01-21T01:28:50.708Z,56.50
2023-01-21T01:31:20.803Z,53.60
2023-01-21T01:33:49.498Z,56.80
2023-01-21T01:36:24.749Z,57.90
2023-01-21T01:38:54.120Z,52.70
2023-01-21T01:41:29.943Z,63.80
2023-01-21T01:44:06.023Z,57.40
2023-01-21T01:46:36.537Z,60.60
2023-01-21T01:49:21.029Z,58.70
2023-01-21T01:52:05.098Z,54.50
2023-01-21T01:54:39.257Z,56.00
2023-01-21T01:57:12.809Z,51.00
2023-01-21T01:59:43.865Z,59.00
2023-01-21T02:02:17.909Z,56.90
2023-01-21T02:04:53.025Z,52.80
2023-01-21T02:07:24.904Z,55.00
2023-01-21T02:09:53.783Z,55.00
2023-01-21T02:12:22.760Z,53.50
2023-01-21T02:14:51.417Z,53.70
2023-01-21T02:17:35.945Z,52.10
2023-01-21T02:20:41.218Z,52.70
2023-01-21T02:23:24.455Z,64.50
2023-01-21T02:26:42.382Z,56.90
2023-01-21T02:29:31.326Z,63.80
2023-01-21T02:32:13.931Z,59.00
2023-01-21T02:35:03.775Z,48.80
2023-01-21T02:37:43.932Z,48.00
2023-01-21T02:40:35.966Z,62.40
2023-01-21T02:43:15.406Z,51.30
2023-01-21T02:46:03.154Z,46.10
2023-01-21T02:48:47.935Z,47.10
2023-01-21T02:51:20.356Z,49.90
2023-01-21T02:53:48.861Z,54.00
2023-01-21T02:56:27.816Z,54.80
2023-01-21T02:59:04.894Z,47.00
2023-01-21T03:02:29.746Z,51.50
2023-01-21T03:05:28.183Z,47.70
2023-01-21T03:08:11.779Z,43.60
2023-01-21T03:11:06.009Z,45.40
2023-01-21T03:14:09.119Z,44.20
2023-01-21T03:16:57.327Z,40.00
2023-01-21T03:19:45.787Z,34.10
2023-01-21T03:22:22.038Z,37.70
2023-01-21T03:24:53.933Z,35.80
2023-01-21T03:27:27.056Z,35.80
2023-01-21T03:30:08.393Z,36.50
2023-01-21T03:32:38.396Z,29.80
2023-01-21T03:35:08.759Z,34.00
2023-01-21T03:37:43.548Z,31.80
2023-01-21T03:40:26.348Z,30.70
2023-01-21T03:42:56.550Z,31.00
2023-01-21T03:45:49.289Z,31.00
2023-01-21T03:48:31.393Z,30.90
2023-01-21T03:51:08.469Z,33.60
2023-01-21T03:53:37.091Z,31.70
2023-01-21T03:56:05.755Z,29.80
2023-01-21T03:58:34.215Z,31.90
2023-01-21T04:01:02.733Z,33.90
2023-01-21T04:03:31.057Z,33.20
2023-01-21T04:05:59.358Z,35.10
2023-01-21T04:08:27.684Z,32.80
2023-01-21T04:10:56.017Z,37.00
2023-01-21T04:13:24.528Z,31.70
2023-01-21T04:15:52.906Z,34.10
2023-01-21T04:18:21.344Z,35.20
2023-01-21T04:20:49.905Z,35.90
2023-01-21T04:23:18.318Z,32.90
2023-01-21T04:25:51.563Z,32.30
2023-01-21T04:28:20.119Z,35.80
2023-01-21T04:30:49.305Z,39.10
2023-01-21T04:33:18.123Z,32.90
2023-01-21T04:35:46.479Z,38.40
2023-01-21T04:38:15.856Z,30.30
2023-01-21T04:40:44.630Z,35.90
2023-01-21T04:43:13.167Z,28.70
2023-01-21T04:45:41.609Z,31.10
2023-01-21T04:48:10.020Z,33.60
2023-01-21T04:50:38.360Z,32.40
2023-01-21T04:53:06.888Z,33.00
2023-01-21T04:55:35.536Z,32.50
2023-01-21T04:58:04.140Z,39.00
2023-01-21T05:00:32.543Z,38.20
2023-01-21T05:03:00.972Z,35.90
2023-01-21T05:05:29.361Z,34.60
2023-01-21T05:07:57.688Z,37.70
2023-01-21T05:10:26.072Z,37.00
2023-01-21T05:12:54.573Z,41.80
2023-01-21T05:15:23.540Z,40.10
2023-01-21T05:17:51.887Z,35.90
2023-01-21T05:20:20.289Z,34.80
2023-01-21T05:22:48.965Z,34.70
2023-01-21T05:25:17.362Z,39.70
2023-01-21T05:27:54.950Z,30.60
2023-01-21T05:30:23.529Z,35.60
2023-01-21T05:32:54.006Z,33.40
2023-01-21T05:35:24.157Z,36.20
2023-01-21T05:37:52.483Z,30.50
2023-01-21T05:40:21.028Z,32.50
2023-01-21T05:42:49.433Z,32.40
2023-01-21T05:45:18.035Z,30.90
2023-01-21T05:47:46.403Z,31.60
2023-01-21T05:50:15.017Z,32.80
2023-01-21T05:52:43.521Z,31.70
2023-01-21T05:55:11.934Z,31.70
2023-01-21T05:57:40.267Z,28.10
2023-01-21T06:00:09.741Z,33.10
2023-01-21T06:02:38.023Z,32.60
2023-01-21T06:05:07.221Z,29.40
2023-01-21T06:07:35.549Z,28.90
2023-01-21T06:10:04.383Z,30.80
2023-01-21T06:12:32.835Z,27.60
2023-01-21T06:15:01.176Z,28.00
2023-01-21T06:17:29.601Z,32.10
2023-01-21T06:19:57.909Z,30.40
2023-01-21T06:22:26.295Z,28.30
2023-01-21T06:24:54.583Z,33.10
2023-01-21T06:27:22.874Z,27.80
2023-01-21T06:29:51.177Z,31.10
2023-01-21T06:32:19.607Z,27.50
2023-01-21T06:34:47.963Z,30.00
2023-01-21T06:37:16.295Z,30.60
2023-01-21T06:39:44.579Z,25.50
2023-01-21T06:42:12.872Z,23.70
2023-01-21T06:44:41.183Z,27.50
2023-01-21T06:47:09.655Z,29.40
2023-01-21T06:49:38.200Z,25.40
2023-01-21T06:52:07.164Z,24.60
2023-01-21T06:54:35.500Z,27.10
2023-01-21T06:57:03.891Z,25.90
2023-01-21T06:59:32.193Z,28.40
2023-01-21T07:02:00.613Z,27.50
2023-01-21T07:04:29.158Z,21.60
2023-01-21T07:06:57.423Z,24.70
2023-01-21T07:09:25.793Z,20.70
2023-01-21T07:11:55.509Z,22.40
2023-01-21T07:14:23.980Z,20.90
2023-01-21T07:16:53.591Z,25.40
2023-01-21T07:19:21.922Z,21.20
2023-01-21T07:21:50.744Z,27.70
2023-01-21T07:24:19.248Z,24.20
2023-01-21T07:26:48.281Z,22.00
2023-01-21T07:29:16.706Z,23.50
2023-01-21T07:31:45.126Z,25.40
2023-01-21T07:34:13.634Z,24.60
2023-01-21T07:36:42.217Z,17.50
2023-01-21T07:39:10.623Z,20.10
2023-01-21T07:41:39.068Z,19.90
2023-01-21T07:44:08.853Z,20.50
2023-01-21T07:46:37.244Z,21.30
2023-01-21T07:49:05.599Z,19.50
2023-01-21T07:51:34.003Z,16.30
2023-01-21T07:54:02.592Z,20.90
2023-01-21T07:56:31.039Z,20.60
2023-01-21T07:58:59.483Z,17.60
2023-01-21T08:01:31.076Z,16.80
2023-01-21T08:03:59.911Z,17.20
2023-01-21T08:06:28.274Z,14.00
2023-01-21T08:08:56.588Z,13.50
2023-01-21T08:11:25.155Z,17.00
2023-01-21T08:13:53.529Z,16.20
2023-01-21T08:16:22.142Z,13.90
2023-01-21T08:18:50.560Z,17.60
2023-01-21T08:21:20.961Z,13.70
2023-01-21T08:23:49.404Z,15.70
2023-01-21T08:26:18.220Z,14.70
2023-01-21T08:28:46.587Z,15.50
2023-01-21T08:31:15.389Z,16.90
2023-01-21T08:33:43.944Z,14.30
2023-01-21T08:36:12.491Z,14.60
2023-01-21T08:38:41.091Z,14.10
2023-01-21T08:41:10.846Z,16.50
2023-01-21T08:43:40.668Z,13.80
2023-01-21T08:46:09.054Z,12.10
2023-01-21T08:48:40.341Z,10.80
2023-01-21T08:51:08.729Z,12.30
2023-01-21T08:53:37.117Z,11.90
2023-01-21T08:56:06.000Z,13.90
2023-01-21T08:58:34.581Z,13.80
2023-01-21T09:01:09.460Z,14.30
2023-01-21T09:03:38.244Z,13.10
2023-01-21T09:06:07.641Z,11.40
2023-01-21T09:08:36.543Z,10.30
2023-01-21T09:11:07.011Z,9.90
2023-01-21T09:13:39.186Z,8.90
2023-01-21T09:16:20.023Z,9.20
2023-01-21T09:18:49.168Z,14.30
2023-01-21T09:21:17.656Z,12.20
2023-01-21T09:23:45.969Z,14.40
2023-01-21T09:26:20.314Z,15.00
2023-01-21T09:29:02.000Z,20.50
2023-01-21T09:31:31.619Z,24.20
2023-01-21T09:34:03.981Z,18.70
2023-01-21T09:36:35.191Z,17.00
2023-01-21T09:39:03.847Z,16.60
2023-01-21T09:41:53.460Z,12.40
2023-01-21T09:44:44.909Z,15.10
2023-01-21T09:47:33.752Z,9.60
2023-01-21T09:50:19.004Z,12.30
2023-01-21T09:52:55.298Z,13.50
2023-01-21T09:55:31.627Z,10.40
2023-01-21T09:58:28.268Z,9.80
2023-01-21T10:01:15.603Z,10.10
2023-01-21T10:03:55.639Z,9.80
2023-01-21T10:06:44.105Z,8.80
2023-01-21T10:09:21.297Z,10.00
2023-01-21T10:12:18.516Z,10.70
2023-01-21T10:15:19.748Z,10.40
2023-01-21T10:18:15.020Z,11.80
2023-01-21T10:20:56.943Z,13.60
2023-01-21T10:23:39.055Z,8.90
2023-01-21T10:26:11.900Z,11.30
2023-01-21T10:28:50.394Z,12.60
2023-01-21T10:31:28.621Z,8.90
2023-01-21T10:33:57.289Z,8.30
2023-01-21T10:36:35.695Z,7.30
2023-01-21T10:39:10.009Z,7.80
2023-01-21T10:41:44.221Z,8.20
2023-01-21T10:44:53.292Z,7.20
2023-01-21T10:47:38.980Z,6.10
2023-01-21T10:50:48.286Z,6.30
2023-01-21T10:53:41.872Z,7.40
2023-01-21T10:57:06.552Z,5.80
2023-01-21T10:59:37.823Z,5.60
2023-01-21T11:02:09.127Z,5.70
2023-01-21T11:04:40.859Z,6.40
2023-01-21T11:07:14.883Z,7.50
2023-01-21T11:09:47.041Z,8.20
2023-01-21T11:12:21.791Z,8.20
2023-01-21T11:15:16.742Z,6.40
2023-01-21T11:17:49.201Z,5.70
2023-01-21T11:20:34.835Z,6.70
2023-01-21T11:23:24.367Z,7.20
2023-01-21T11:26:04.921Z,7.70
2023-01-21T11:28:34.506Z,5.70
2023-01-21T11:31:26.963Z,7.70
2023-01-21T11:33:55.798Z,7.20
2023-01-21T11:36:24.096Z,9.30
2023-01-21T11:39:05.528Z,9.10
2023-01-21T11:41:34.020Z,7.80
2023-01-21T11:44:23.717Z,7.50
2023-01-21T11:46:52.870Z,9.60
2023-01-21T11:49:28.805Z,8.00
2023-01-21T11:52:16.756Z,7.80
2023-01-21T11:54:46.165Z,13.00
2023-01-21T11:57:26.932Z,9.00
2023-01-21T12:00:04.206Z,11.20
2023-01-21T12:02:40.779Z,9.90
2023-01-21T12:05:34.369Z,11.50
2023-01-21T12:08:05.843Z,13.90
2023-01-21T12:10:46.919Z,13.10
2023-01-21T12:13:20.272Z,9.80
2023-01-21T12:16:40.509Z,8.90
2023-01-21T12:19:49.914Z,8.40
2023-01-21T12:22:59.845Z,24.10
2023-01-21T12:25:41.553Z,30.30
2023-01-21T12:28:34.011Z,7.70
2023-01-21T12:31:14.039Z,10.80
2023-01-21T12:33:53.383Z,14.60
2023-01-21T12:37:02.979Z,13.70
2023-01-21T12:39:36.503Z,11.70
2023-01-21T12:42:37.661Z,10.80
2023-01-21T12:45:23.159Z,9.40
2023-01-21T12:48:05.580Z,9.90
2023-01-21T12:50:47.956Z,10.20
2023-01-21T12:53:32.879Z,6.50
2023-01-21T12:56:34.981Z,7.80
2023-01-21T12:59:17.057Z,6.70
2023-01-21T13:02:05.779Z,9.10
2023-01-21T13:04:58.209Z,7.40
2023-01-21T13:07:58.112Z,7.10
2023-01-21T13:10:35.384Z,10.00
2023-01-21T13:13:10.815Z,6.20
2023-01-21T13:18:28.736Z,6.00
2023-01-21T13:21:08.468Z,7.90
2023-01-21T13:23:58.442Z,6.50
2023-01-21T13:26:50.607Z,10.20
2023-01-21T13:29:44.923Z,8.80
2023-01-21T13:33:04.721Z,9.50
2023-01-21T13:36:37.160Z,7.10
2023-01-21T13:39:45.595Z,15.10
2023-01-21T13:42:56.177Z,12.30
2023-01-21T13:45:53.162Z,6.90
2023-01-21T13:48:45.325Z,8.10
2023-01-21T13:51:49.123Z,9.40
2023-01-21T13:54:40.806Z,8.40
2023-01-21T13:57:26.967Z,7.40
2023-01-21T14:00:01.634Z,7.60
2023-01-21T14:02:59.259Z,7.00
2023-01-21T14:05:52.060Z,7.60
2023-01-21T14:08:36.655Z,7.30
2023-01-21T14:11:39.233Z,8.40
2023-01-21T14:14:46.084Z,7.30
2023-01-21T14:17:42.128Z,10.60
2023-01-21T14:20:50.605Z,9.00
2023-01-21T14:23:45.052Z,9.50
2023-01-21T14:26:39.400Z,10.30
2023-01-21T14:29:26.108Z,10.70
2023-01-21T14:32:08.198Z,10.70
2023-01-21T14:35:13.921Z,8.80
2023-01-21T14:38:05.451Z,11.40
2023-01-21T14:40:44.443Z,9.20
2023-01-21T14:43:40.522Z,12.40
2023-01-21T14:46:34.164Z,9.30
2023-01-21T14:49:08.258Z,10.50
2023-01-21T14:52:03.495Z,10.60
2023-01-21T14:54:31.801Z,10.70
2023-01-21T14:57:17.385Z,10.10
2023-01-21T14:59:47.456Z,10.90
2023-01-21T15:02:35.005Z,10.30
2023-01-21T15:05:15.842Z,10.90
2023-01-21T15:07:48.680Z,12.00
2023-01-21T15:10:30.028Z,9.60
2023-01-21T15:13:03.037Z,10.50
2023-01-21T15:15:36.856Z,13.30
2023-01-21T15:18:34.487Z,23.20
2023-01-21T15:21:41.384Z,28.40
2023-01-21T15:27:23.078Z,19.00
2023-01-21T15:29:54.377Z,12.30
2023-01-21T15:32:31.862Z,19.20
2023-01-21T15:35:31.363Z,14.60
2023-01-21T15:38:08.101Z,19.50
2023-01-21T15:40:45.041Z,23.80
2023-01-21T15:43:41.313Z,19.90
2023-01-21T15:46:56.937Z,17.60
2023-01-21T15:50:01.391Z,16.90
2023-01-21T15:52:57.804Z,16.80
2023-01-21T15:56:16.668Z,13.80
2023-01-21T15:59:20.001Z,16.20
2023-01-21T16:02:13.564Z,14.80
2023-01-21T16:04:56.577Z,17.10
2023-01-21T16:07:30.857Z,17.10
2023-01-21T16:10:08.738Z,18.00
2023-01-21T16:13:03.064Z,17.00
2023-01-21T16:16:13.058Z,14.10
2023-01-21T16:18:56.127Z,17.80
2023-01-21T16:21:32.924Z,13.50
2023-01-21T16:24:14.060Z,16.50
2023-01-21T16:26:43.336Z,13.80
2023-01-21T16:29:14.026Z,14.70
2023-01-21T16:31:49.255Z,26.60
2023-01-21T16:34:36.309Z,31.30
2023-01-21T16:37:13.060Z,24.90
2023-01-21T16:39:43.491Z,25.50
2023-01-21T16:42:25.215Z,15.30
2023-01-21T16:44:53.919Z,18.10
2023-01-21T16:47:32.717Z,15.90
2023-01-21T16:50:01.339Z,13.90
2023-01-21T16:52:30.578Z,15.60
2023-01-21T16:54:58.872Z,14.90
2023-01-21T16:57:32.167Z,15.60
2023-01-21T17:00:02.487Z,14.10
2023-01-21T17:02:34.009Z,14.10
2023-01-21T17:05:08.168Z,16.90
2023-01-21T17:07:49.874Z,17.40
2023-01-21T17:10:24.402Z,18.50
2023-01-21T17:12:58.653Z,14.40
2023-01-21T17:15:38.648Z,14.20
2023-01-21T17:18:20.105Z,13.90
2023-01-21T17:21:00.688Z,15.50
2023-01-21T17:23:39.041Z,13.70
2023-01-21T17:26:17.100Z,16.50
2023-01-21T17:29:18.839Z,14.90
2023-01-21T17:32:00.001Z,15.30
2023-01-21T17:34:34.825Z,20.00
2023-01-21T17:41:27.270Z,23.80
2023-01-21T17:43:56.696Z,21.90
2023-01-21T17:46:25.297Z,22.60
2023-01-21T17:49:07.220Z,19.50
2023-01-21T17:51:35.902Z,31.00
2023-01-21T17:54:08.965Z,38.00
2023-01-21T17:56:48.446Z,43.60
2023-01-21T17:59:41.639Z,32.50
2023-01-21T18:02:17.661Z,29.60
2023-01-21T18:04:46.657Z,23.00
2023-01-21T18:07:29.852Z,21.90
2023-01-21T18:10:02.773Z,27.70
2023-01-21T18:12:31.472Z,26.80
2023-01-21T18:15:00.026Z,47.30
2023-01-21T18:17:28.417Z,79.70
2023-01-21T18:19:57.985Z,99.60
2023-01-21T18:22:30.576Z,125.00
2023-01-21T18:25:00.480Z,103.40
2023-01-21T18:27:29.060Z,81.50
2023-01-21T18:29:58.950Z,52.00
2023-01-21T18:32:27.409Z,34.20
2023-01-21T18:34:56.014Z,24.20
2023-01-21T18:37:25.230Z,22.70
2023-01-21T18:39:53.577Z,27.80
2023-01-21T18:42:22.148Z,28.70
2023-01-21T18:44:50.512Z,22.10
2023-01-21T18:47:19.769Z,26.80
2023-01-21T18:49:52.427Z,27.90
2023-01-21T18:52:21.234Z,29.90
2023-01-21T18:54:49.757Z,23.20
2023-01-21T18:57:22.397Z,26.10
2023-01-21T18:59:50.861Z,25.90
2023-01-21T19:02:21.106Z,29.30
2023-01-21T19:04:49.724Z,24.80
2023-01-21T19:07:22.113Z,26.00
2023-01-21T19:09:51.297Z,27.90
2023-01-21T19:12:21.320Z,28.40
2023-01-21T19:14:49.945Z,28.70
2023-01-21T19:17:28.733Z,28.50
2023-01-21T19:19:57.584Z,27.90
2023-01-21T19:22:28.475Z,33.70
2023-01-21T19:24:56.892Z,29.90
2023-01-21T19:27:37.427Z,39.90
2023-01-21T19:30:31.413Z,31.50
2023-01-21T19:33:02.962Z,33.80
2023-01-21T19:35:44.485Z,39.80
2023-01-21T19:38:20.941Z,34.60
2023-01-21T19:40:50.662Z,30.90
2023-01-21T19:43:21.709Z,40.20
2023-01-21T19:45:51.843Z,90.20
2023-01-21T19:48:22.159Z,115.40
2023-01-21T19:50:50.691Z,101.70
2023-01-21T19:53:21.259Z,88.10
2023-01-21T19:55:50.937Z,97.70
2023-01-21T19:58:27.623Z,81.30
2023-01-21T20:00:56.265Z,77.90
2023-01-21T20:03:27.847Z,68.60
2023-01-21T20:06:03.764Z,69.20
2023-01-21T20:08:32.999Z,60.40
2023-01-21T20:11:01.351Z,59.50
2023-01-21T20:13:32.297Z,60.00
2023-01-21T20:16:14.490Z,69.10
2023-01-21T20:18:43.698Z,99.20
2023-01-21T20:21:12.296Z,101.60
2023-01-21T20:23:40.933Z,97.00
2023-01-21T20:26:20.305Z,89.70
2023-01-21T20:28:51.445Z,69.60
2023-01-21T20:31:20.859Z,59.30
2023-01-21T20:33:49.521Z,57.20
2023-01-21T20:36:24.650Z,52.40
2023-01-21T20:38:55.042Z,67.10
2023-01-21T20:41:23.421Z,81.00
2023-01-21T20:43:51.937Z,57.00
2023-01-21T20:46:27.315Z,77.80
2023-01-21T20:51:25.532Z,82.50
2023-01-21T20:53:54.342Z,77.20
2023-01-21T20:56:33.042Z,75.10
2023-01-21T20:59:01.634Z,80.90
2023-01-21T21:01:31.262Z,71.60
2023-01-21T21:03:59.734Z,65.10
2023-01-21T21:06:29.023Z,63.30
2023-01-21T21:08:57.570Z,56.80
2023-01-21T21:11:26.102Z,67.50
2023-01-21T21:13:54.603Z,48.30
2023-01-21T21:16:31.595Z,51.30
2023-01-21T21:19:00.864Z,45.20
2023-01-21T21:21:29.480Z,49.00
2023-01-21T21:23:57.901Z,49.10
2023-01-21T21:26:29.628Z,47.00
2023-01-21T21:28:58.086Z,51.40
2023-01-21T21:31:32.724Z,48.10
2023-01-21T21:34:01.341Z,50.40
2023-01-21T21:36:30.031Z,49.20
2023-01-21T21:39:00.114Z,46.70
2023-01-21T21:41:47.438Z,45.80
2023-01-21T21:44:15.876Z,44.20
2023-01-21T21:47:03.262Z,48.90
2023-01-21T21:49:32.463Z,48.40
2023-01-21T21:52:01.051Z,45.90
2023-01-21T21:54:29.561Z,50.10
2023-01-21T21:56:58.224Z,45.60
2023-01-21T21:59:26.799Z,56.70
2023-01-21T22:01:55.241Z,81.20
2023-01-21T22:04:24.238Z,43.80
2023-01-21T22:06:52.831Z,49.20
2023-01-21T22:09:21.469Z,50.10
2023-01-21T22:11:49.856Z,48.10
2023-01-21T22:14:18.371Z,47.30
2023-01-21T22:16:49.743Z,46.30
2023-01-21T22:19:18.267Z,43.50
2023-01-21T22:21:47.045Z,53.00
2023-01-21T22:24:15.855Z,47.60
2023-01-21T22:26:44.889Z,44.30
2023-01-21T22:29:13.355Z,45.80
2023-01-21T22:31:42.313Z,44.60
2023-01-21T22:34:11.791Z,45.70
2023-01-21T22:36:42.125Z,47.00
2023-01-21T22:39:11.889Z,49.10
2023-01-21T22:41:40.300Z,43.90
2023-01-21T22:44:08.680Z,48.60
2023-01-21T22:46:37.055Z,54.70
2023-01-21T22:49:05.543Z,47.40
2023-01-21T22:51:36.189Z,47.30
2023-01-21T22:54:07.679Z,53.80
2023-01-21T22:56:50.939Z,48.20
2023-01-21T22:59:21.073Z,52.10
2023-01-21T23:01:51.339Z,53.60
2023-01-21T23:04:19.977Z,51.00
2023-01-21T23:06:50.082Z,43.80
2023-01-21T23:09:18.549Z,45.50
2023-01-21T23:11:47.153Z,39.70
2023-01-21T23:14:16.706Z,41.90
2023-01-21T23:16:46.276Z,43.90
2023-01-21T23:19:15.276Z,46.80
2023-01-21T23:21:43.964Z,51.40
2023-01-21T23:24:12.549Z,41.40
2023-01-21T23:26:41.715Z,47.50
2023-01-21T23:29:10.286Z,45.90
2023-01-21T23:31:38.756Z,41.80
2023-01-21T23:34:07.501Z,54.40
2023-01-21T23:36:35.916Z,46.50
2023-01-21T23:39:04.600Z,47.90
2023-01-21T23:41:32.974Z,53.50
2023-01-21T23:44:01.956Z,43.90
2023-01-21T23:46:30.720Z,41.80
2023-01-21T23:48:59.504Z,49.00
2023-01-21T23:51:28.006Z,42.40
2023-01-21T23:53:56.576Z,49.50
2023-01-21T23:56:26.356Z,41.60
2023-01-21T23:58:55.117Z,44.80
